createdAt,value
2019-05-28T00:00:51.111Z,68.72
2019-05-28T00:03:19.998Z,68.98
2019-05-28T00:05:49.137Z,68.95
2019-05-28T00:08:18.492Z,68.89
2019-05-28T00:10:47.694Z,69.37
2019-05-28T00:13:16.602Z,68.98
2019-05-28T00:15:45.594Z,68.88
2019-05-28T00:18:14.427Z,68.18
2019-05-28T00:20:43.259Z,68.12
2019-05-28T00:23:12.557Z,67.78
2019-05-28T00:25:43.062Z,68.24
2019-05-28T00:28:11.897Z,68.33
2019-05-28T00:30:41.875Z,68.35
2019-05-28T00:33:12.332Z,67.37
2019-05-28T00:35:42.418Z,67.53
2019-05-28T00:38:11.326Z,67.64
2019-05-28T00:40:40.299Z,67.58
2019-05-28T00:43:09.685Z,67.21
2019-05-28T00:45:38.544Z,67.18
2019-05-28T00:48:07.400Z,67.12
2019-05-28T00:50:37.046Z,67.29
2019-05-28T00:53:05.924Z,66.89
2019-05-28T00:55:34.879Z,67.43
2019-05-28T00:58:03.711Z,68.04
2019-05-28T01:00:46.221Z,68.43
2019-05-28T01:03:15.036Z,68.90
2019-05-28T01:05:43.880Z,69.69
2019-05-28T01:08:12.764Z,69.54
2019-05-28T01:10:41.720Z,69.32
2019-05-28T01:13:10.589Z,69.82
2019-05-28T01:15:39.407Z,69.46
2019-05-28T01:18:09.125Z,69.67
2019-05-28T01:20:38.158Z,69.72
2019-05-28T01:23:07.059Z,69.74
2019-05-28T01:25:35.922Z,69.51
2019-05-28T01:28:04.883Z,69.54
2019-05-28T01:30:33.720Z,69.31
2019-05-28T01:33:04.049Z,69.19
2019-05-28T01:35:36.903Z,68.75
2019-05-28T01:38:08.359Z,68.99
2019-05-28T01:40:34.625Z,68.62
2019-05-28T01:43:03.709Z,68.59
2019-05-28T01:45:32.611Z,67.89
2019-05-28T01:48:01.440Z,68.10
2019-05-28T01:50:30.259Z,68.05
2019-05-28T01:52:59.116Z,67.86
2019-05-28T01:55:27.924Z,68.11
2019-05-28T01:57:58.168Z,68.07
2019-05-28T02:00:27.069Z,68.36
2019-05-28T02:02:55.958Z,67.97
2019-05-28T02:05:24.827Z,68.12
2019-05-28T02:07:54.660Z,68.00
2019-05-28T02:10:24.193Z,68.20
2019-05-28T02:12:53.181Z,68.78
2019-05-28T02:15:22.010Z,68.62
2019-05-28T02:17:52.891Z,68.71
2019-05-28T02:20:22.979Z,68.67
2019-05-28T02:22:51.872Z,69.50
2019-05-28T02:25:20.713Z,70.04
2019-05-28T02:27:50.244Z,70.86
2019-05-28T02:30:19.191Z,71.27
2019-05-28T02:32:48.624Z,71.96
2019-05-28T02:35:17.456Z,71.64
2019-05-28T02:37:46.822Z,72.21
2019-05-28T02:40:16.307Z,72.59
2019-05-28T02:42:45.119Z,72.99
2019-05-28T02:45:13.981Z,72.07
2019-05-28T02:47:43.517Z,72.36
2019-05-28T02:50:12.436Z,72.40
2019-05-28T02:52:41.345Z,72.74
2019-05-28T02:55:10.189Z,72.75
2019-05-28T02:57:39.514Z,72.53
2019-05-28T03:00:08.762Z,72.17
2019-05-28T03:02:37.598Z,72.41
2019-05-28T03:05:07.208Z,71.81
2019-05-28T03:07:36.020Z,72.05
2019-05-28T03:10:05.615Z,72.09
2019-05-28T03:12:34.411Z,72.08
2019-05-28T03:15:04.529Z,72.13
2019-05-28T03:17:34.020Z,71.55
2019-05-28T03:20:02.849Z,71.32
2019-05-28T03:22:32.033Z,71.60
2019-05-28T03:25:00.845Z,70.90
2019-05-28T03:27:29.680Z,70.96
2019-05-28T03:29:58.504Z,71.24
2019-05-28T03:32:27.323Z,70.81
2019-05-28T03:34:56.436Z,71.35
2019-05-28T03:37:25.919Z,71.26
2019-05-28T03:39:54.734Z,71.19
2019-05-28T03:42:23.560Z,71.15
2019-05-28T03:44:52.914Z,71.93
2019-05-28T03:47:21.804Z,72.57
2019-05-28T03:49:51.629Z,72.44
2019-05-28T03:52:20.430Z,72.81
2019-05-28T03:54:50.603Z,73.10
2019-05-28T03:57:19.532Z,73.55
2019-05-28T03:59:48.374Z,72.57
2019-05-28T04:02:23.631Z,73.00
2019-05-28T04:04:47.406Z,73.12
2019-05-28T04:07:16.219Z,74.49
2019-05-28T04:09:45.672Z,74.82
2019-05-28T04:12:15.391Z,74.46
2019-05-28T04:14:44.301Z,74.64
2019-05-28T04:17:13.186Z,74.54
2019-05-28T04:19:42.146Z,74.74
2019-05-28T04:22:11.670Z,74.45
2019-05-28T04:24:40.652Z,75.29
2019-05-28T04:27:09.519Z,76.03
2019-05-28T04:29:38.366Z,77.77
2019-05-28T04:32:07.194Z,77.69
2019-05-28T04:34:36.029Z,77.73
2019-05-28T04:37:05.834Z,77.66
2019-05-28T04:39:35.593Z,78.00
2019-05-28T04:42:04.227Z,78.10
2019-05-28T04:44:33.087Z,78.34
2019-05-28T04:47:03.588Z,77.85
2019-05-28T04:49:32.424Z,77.23
2019-05-28T04:52:01.773Z,77.11
2019-05-28T04:54:30.572Z,77.39
2019-05-28T04:57:00.028Z,76.71
2019-05-28T04:59:28.842Z,77.18
2019-05-28T05:01:59.179Z,76.83
2019-05-28T05:04:28.320Z,76.37
2019-05-28T05:06:57.167Z,75.97
2019-05-28T05:09:26.164Z,75.94
2019-05-28T05:11:55.067Z,74.83
2019-05-28T05:14:23.883Z,74.43
2019-05-28T05:16:52.737Z,74.33
2019-05-28T05:19:22.455Z,73.99
2019-05-28T05:21:52.598Z,73.44
2019-05-28T05:24:21.492Z,73.47
2019-05-28T05:26:52.878Z,73.34
2019-05-28T05:29:19.359Z,72.76
2019-05-28T05:31:48.421Z,72.88
2019-05-28T05:34:17.275Z,73.54
2019-05-28T05:36:47.025Z,74.01
2019-05-28T05:39:17.185Z,74.42
2019-05-28T05:41:46.923Z,74.89
2019-05-28T05:44:15.808Z,74.36
2019-05-28T05:46:44.664Z,73.85
2019-05-28T05:49:13.592Z,73.58
2019-05-28T05:51:44.082Z,73.85
2019-05-28T05:54:13.220Z,74.08
2019-05-28T05:56:42.092Z,74.08
2019-05-28T05:59:10.903Z,74.12
2019-05-28T06:01:40.064Z,74.55
2019-05-28T06:04:08.922Z,73.96
2019-05-28T06:06:37.749Z,73.26
2019-05-28T06:09:07.484Z,72.92
2019-05-28T06:11:36.414Z,72.84
2019-05-28T06:14:05.255Z,73.71
2019-05-28T06:16:34.125Z,74.55
2019-05-28T06:19:03.858Z,75.49
2019-05-28T06:21:32.658Z,75.97
2019-05-28T06:24:01.471Z,76.25
2019-05-28T06:26:30.584Z,76.74
2019-05-28T06:28:59.525Z,77.14
2019-05-28T06:31:28.415Z,77.72
2019-05-28T06:33:57.655Z,78.68
2019-05-28T06:36:28.576Z,78.79
2019-05-28T06:38:57.483Z,79.05
2019-05-28T06:41:27.354Z,79.32
2019-05-28T06:43:56.168Z,79.52
2019-05-28T06:46:28.098Z,79.98
2019-05-28T06:48:56.906Z,80.30
2019-05-28T06:51:25.758Z,80.39
2019-05-28T06:53:54.617Z,80.77
2019-05-28T06:56:23.632Z,81.12
2019-05-28T06:58:52.797Z,80.90
2019-05-28T07:01:21.769Z,80.93
2019-05-28T07:03:50.612Z,82.65
2019-05-28T07:06:19.472Z,82.88
2019-05-28T07:08:48.891Z,82.62
2019-05-28T07:11:17.743Z,82.80
2019-05-28T07:13:46.598Z,83.12
2019-05-28T07:16:15.534Z,83.74
2019-05-28T07:18:44.458Z,84.38
2019-05-28T07:21:14.080Z,84.28
2019-05-28T07:23:42.774Z,84.57
2019-05-28T07:26:11.579Z,84.65
2019-05-28T07:28:40.486Z,84.97
2019-05-28T07:31:09.955Z,84.67
2019-05-28T07:33:39.801Z,84.78
2019-05-28T07:36:08.703Z,84.60
2019-05-28T07:38:37.640Z,84.51
2019-05-28T07:41:06.431Z,84.12
2019-05-28T07:43:35.257Z,83.75
2019-05-28T07:46:04.152Z,83.37
2019-05-28T07:48:34.328Z,83.86
2019-05-28T07:51:03.810Z,83.56
2019-05-28T07:53:40.145Z,83.61
2019-05-28T07:56:02.210Z,83.88
2019-05-28T07:58:31.108Z,83.71
2019-05-28T08:00:59.936Z,83.34
2019-05-28T08:03:28.803Z,83.15
2019-05-28T08:05:57.642Z,83.46
2019-05-28T08:08:26.475Z,82.39
2019-05-28T08:10:57.626Z,82.12
2019-05-28T08:13:40.209Z,81.64
2019-05-28T08:16:14.727Z,82.33
2019-05-28T08:18:24.790Z,82.29
2019-05-28T08:20:55.081Z,82.49
2019-05-28T08:23:24.977Z,82.15
2019-05-28T08:25:54.886Z,81.66
2019-05-28T08:28:23.774Z,81.59
2019-05-28T08:30:52.641Z,80.88
2019-05-28T08:33:21.521Z,81.11
2019-05-28T08:35:51.702Z,80.73
2019-05-28T08:38:19.470Z,80.35
2019-05-28T08:40:50.288Z,79.67
2019-05-28T08:43:19.158Z,79.20
2019-05-28T08:45:47.974Z,79.58
2019-05-28T08:48:16.837Z,79.79
2019-05-28T08:50:50.009Z,79.84
2019-05-28T08:53:18.952Z,79.38
2019-05-28T08:55:47.776Z,79.06
2019-05-28T08:58:17.321Z,78.00
2019-05-28T09:00:46.155Z,78.39
2019-05-28T09:03:15.558Z,78.04
2019-05-28T09:05:45.691Z,76.97
2019-05-28T09:08:37.826Z,77.32
2019-05-28T09:10:51.714Z,77.58
2019-05-28T09:13:20.549Z,77.65
2019-05-28T09:15:51.028Z,76.54
2019-05-28T09:18:19.918Z,76.75
2019-05-28T09:20:49.344Z,77.28
2019-05-28T09:23:19.107Z,76.84
2019-05-28T09:25:47.953Z,76.64
2019-05-28T09:28:29.008Z,75.98
2019-05-28T09:30:45.976Z,76.17
2019-05-28T09:33:15.513Z,76.05
2019-05-28T09:35:55.956Z,76.71
2019-05-28T09:38:13.243Z,75.48
2019-05-28T09:40:49.747Z,75.50
2019-05-28T09:43:11.801Z,75.56
2019-05-28T09:45:40.714Z,75.72
2019-05-28T09:48:09.566Z,75.69
2019-05-28T09:50:38.447Z,75.88
2019-05-28T09:53:07.258Z,74.92
2019-05-28T09:55:36.202Z,75.92
2019-05-28T09:58:05.293Z,75.73
2019-05-28T10:00:36.765Z,76.04
2019-05-28T10:03:06.233Z,76.35
2019-05-28T10:05:35.083Z,76.05
2019-05-28T10:08:04.031Z,75.77
2019-05-28T10:10:32.918Z,76.49
2019-05-28T10:13:02.479Z,77.00
2019-05-28T10:15:32.126Z,76.64
2019-05-28T10:18:00.228Z,76.74
2019-05-28T10:20:31.325Z,76.17
2019-05-28T10:23:00.976Z,76.86
2019-05-28T10:25:29.858Z,77.02
2019-05-28T10:28:01.277Z,76.94
2019-05-28T10:30:27.501Z,76.72
2019-05-28T10:32:56.910Z,77.44
2019-05-28T10:35:26.319Z,77.15
2019-05-28T10:37:55.275Z,77.55
2019-05-28T10:40:24.238Z,77.38
2019-05-28T10:42:53.092Z,76.75
2019-05-28T10:45:21.948Z,76.64
2019-05-28T10:47:53.025Z,77.06
2019-05-28T10:50:21.577Z,76.86
2019-05-28T10:52:52.397Z,76.72
2019-05-28T10:55:21.223Z,77.00
2019-05-28T10:57:50.259Z,76.69
2019-05-28T11:00:19.113Z,76.44
2019-05-28T11:02:47.949Z,76.60
2019-05-28T11:05:18.379Z,76.71
2019-05-28T11:07:47.197Z,76.51
2019-05-28T11:10:24.964Z,76.14
2019-05-28T11:12:45.461Z,76.64
2019-05-28T11:15:14.296Z,76.97
2019-05-28T11:17:43.105Z,76.54
2019-05-28T11:20:11.961Z,75.80
2019-05-28T11:22:42.093Z,76.13
2019-05-28T11:25:10.925Z,76.45
2019-05-28T11:27:46.387Z,76.73
2019-05-28T11:30:15.280Z,76.26
2019-05-28T11:32:44.149Z,76.00
2019-05-28T11:35:13.016Z,76.40
2019-05-28T11:37:41.843Z,76.03
2019-05-28T11:40:11.762Z,75.23
2019-05-28T11:42:41.313Z,73.07
2019-05-28T11:45:10.333Z,74.09
2019-05-28T11:47:39.858Z,74.14
2019-05-28T11:50:08.738Z,74.35
2019-05-28T11:52:37.569Z,74.25
2019-05-28T11:55:07.407Z,74.50
2019-05-28T11:57:36.714Z,75.00
2019-05-28T12:00:05.898Z,73.85
2019-05-28T12:02:34.703Z,74.38
2019-05-28T12:05:03.578Z,73.73
2019-05-28T12:07:32.383Z,72.89
2019-05-28T12:10:01.220Z,73.52
2019-05-28T12:12:30.072Z,73.28
2019-05-28T12:14:58.955Z,72.33
2019-05-28T12:17:41.653Z,72.33
2019-05-28T12:19:57.807Z,71.83
2019-05-28T12:22:26.598Z,72.03
2019-05-28T12:24:55.472Z,71.38
2019-05-28T12:27:26.578Z,71.07
2019-05-28T12:29:55.403Z,70.35
2019-05-28T12:32:24.259Z,70.38
2019-05-28T12:34:53.114Z,70.36
2019-05-28T12:37:22.563Z,69.55
2019-05-28T12:39:52.482Z,69.47
2019-05-28T12:42:21.313Z,67.35
2019-05-28T12:45:08.321Z,67.10
2019-05-28T12:47:19.571Z,65.81
2019-05-28T12:49:48.426Z,65.78
2019-05-28T12:52:17.219Z,66.63
2019-05-28T12:54:46.828Z,65.66
2019-05-28T12:57:15.621Z,65.63
2019-05-28T12:59:44.472Z,62.05
2019-05-28T13:02:13.844Z,61.36
2019-05-28T13:04:42.865Z,62.57
2019-05-28T13:07:11.654Z,60.62
2019-05-28T13:09:42.284Z,60.92
2019-05-28T13:12:11.152Z,59.37
2019-05-28T13:14:40.068Z,57.15
2019-05-28T13:17:08.929Z,58.34
2019-05-28T13:19:38.527Z,58.46
2019-05-28T13:22:07.366Z,57.35
2019-05-28T13:24:36.195Z,57.84
2019-05-28T13:27:17.475Z,57.00
2019-05-28T13:29:33.920Z,56.15
2019-05-28T13:32:08.009Z,58.38
2019-05-28T13:34:36.491Z,56.19
2019-05-28T13:37:05.308Z,55.50
2019-05-28T13:39:35.911Z,56.64
2019-05-28T13:42:04.889Z,55.64
2019-05-28T13:44:33.779Z,56.24
2019-05-28T13:47:03.151Z,55.87
2019-05-28T13:49:31.975Z,55.05
2019-05-28T13:52:11.442Z,56.03
2019-05-28T13:54:30.252Z,56.45
2019-05-28T13:56:59.175Z,56.27
2019-05-28T13:59:28.396Z,55.91
2019-05-28T14:01:57.758Z,56.62
2019-05-28T14:04:26.637Z,55.02
2019-05-28T14:06:58.619Z,53.66
2019-05-28T14:09:27.500Z,53.42
2019-05-28T14:11:56.470Z,53.20
2019-05-28T14:14:25.277Z,51.27
2019-05-28T14:16:54.711Z,52.59
2019-05-28T14:19:23.546Z,54.25
2019-05-28T14:21:53.084Z,53.32
2019-05-28T14:24:22.468Z,52.78
2019-05-28T14:26:52.279Z,52.99
2019-05-28T14:29:21.244Z,53.40
2019-05-28T14:31:50.343Z,52.74
2019-05-28T14:34:19.224Z,53.90
2019-05-28T14:36:48.621Z,53.80
2019-05-28T14:39:17.644Z,53.69
2019-05-28T14:41:46.525Z,54.63
2019-05-28T14:44:15.431Z,55.69
2019-05-28T14:46:44.320Z,56.68
2019-05-28T14:49:13.129Z,58.11
2019-05-28T14:51:42.359Z,57.72
2019-05-28T14:54:11.175Z,60.21
2019-05-28T14:56:40.189Z,61.87
2019-05-28T14:59:09.549Z,62.85
2019-05-28T15:01:38.477Z,63.38
2019-05-28T15:04:08.093Z,63.59
2019-05-28T15:06:37.606Z,64.19
2019-05-28T15:09:20.400Z,64.07
2019-05-28T15:11:37.005Z,63.90
2019-05-28T15:14:06.031Z,63.27
2019-05-28T15:16:35.960Z,62.72
2019-05-28T15:19:04.836Z,62.11
2019-05-28T15:21:33.842Z,63.18
2019-05-28T15:24:03.268Z,62.05
2019-05-28T15:26:32.156Z,61.60
2019-05-28T15:29:01.145Z,60.80
2019-05-28T15:31:30.273Z,60.31
2019-05-28T15:33:59.408Z,59.97
2019-05-28T15:36:28.369Z,61.06
2019-05-28T15:38:57.419Z,59.59
2019-05-28T15:41:26.220Z,60.08
2019-05-28T15:43:56.608Z,60.12
2019-05-28T15:46:26.692Z,60.36
2019-05-28T15:48:56.848Z,59.37
2019-05-28T15:51:28.579Z,60.19
2019-05-28T15:53:57.459Z,60.01
2019-05-28T15:56:28.067Z,58.79
2019-05-28T15:58:57.646Z,55.92
2019-05-28T16:01:26.458Z,57.48
2019-05-28T16:03:55.378Z,56.98
2019-05-28T16:06:24.796Z,58.40
2019-05-28T16:08:54.496Z,58.56
2019-05-28T16:11:23.698Z,57.95
2019-05-28T16:13:54.708Z,59.15
2019-05-28T16:16:24.039Z,58.41
2019-05-28T16:18:52.897Z,58.39
2019-05-28T16:21:21.867Z,56.83
2019-05-28T16:23:51.692Z,55.46
2019-05-28T16:26:20.866Z,54.22
2019-05-28T16:28:53.523Z,54.58
2019-05-28T16:31:23.394Z,53.37
2019-05-28T16:33:53.310Z,52.76
2019-05-28T16:36:22.624Z,54.03
2019-05-28T16:38:53.215Z,54.64
2019-05-28T16:41:22.030Z,53.74
2019-05-28T16:43:51.417Z,53.82
2019-05-28T16:46:20.277Z,51.98
2019-05-28T16:48:49.210Z,52.12
2019-05-28T16:51:18.217Z,50.89
2019-05-28T16:53:47.225Z,51.37
2019-05-28T16:56:16.025Z,51.65
2019-05-28T16:58:44.902Z,52.54
2019-05-28T17:04:24.666Z,52.37
2019-05-28T17:07:24.600Z,52.81
2019-05-28T17:09:53.677Z,53.37
2019-05-28T17:12:23.269Z,52.95
2019-05-28T17:14:55.344Z,52.53
2019-05-28T17:17:40.215Z,51.58
2019-05-28T17:21:12.788Z,52.07
2019-05-28T17:23:46.147Z,52.65
2019-05-28T17:26:16.887Z,52.26
2019-05-28T17:28:47.367Z,51.83
2019-05-28T17:31:16.568Z,52.11
2019-05-28T17:33:47.636Z,52.38
2019-05-28T17:36:21.204Z,53.20
2019-05-28T17:39:39.469Z,53.46
2019-05-28T17:42:10.597Z,54.18
2019-05-28T17:44:40.676Z,54.26
2019-05-28T17:47:10.328Z,54.69
2019-05-28T17:49:39.262Z,54.16
2019-05-28T17:52:08.407Z,54.67
2019-05-28T17:54:37.204Z,54.72
2019-05-28T17:57:06.103Z,55.29
2019-05-28T17:59:35.540Z,54.97
2019-05-28T18:02:04.639Z,55.06
2019-05-28T18:04:33.452Z,56.05
2019-05-28T18:07:04.927Z,55.89
2019-05-28T18:09:33.998Z,56.51
2019-05-28T18:12:02.803Z,56.27
2019-05-28T18:14:31.712Z,56.63
2019-05-28T18:17:00.567Z,56.23
2019-05-28T18:19:29.383Z,56.57
2019-05-28T18:21:58.562Z,56.75
2019-05-28T18:24:27.749Z,56.59
2019-05-28T18:26:57.163Z,56.53
2019-05-28T18:29:27.302Z,56.81
2019-05-28T18:31:57.852Z,57.26
2019-05-28T18:34:27.132Z,57.48
2019-05-28T18:36:56.630Z,57.59
2019-05-28T18:39:25.770Z,57.65
2019-05-28T18:41:54.402Z,57.59
2019-05-28T18:44:24.941Z,58.27
2019-05-28T18:46:54.745Z,58.02
2019-05-28T18:49:23.697Z,58.15
2019-05-28T18:51:53.242Z,58.40
2019-05-28T18:54:22.043Z,58.16
2019-05-28T18:56:51.113Z,58.10
2019-05-28T18:59:19.987Z,58.46
2019-05-28T19:01:50.069Z,58.57
2019-05-28T19:04:20.451Z,58.67
2019-05-28T19:06:48.696Z,58.59
2019-05-28T19:09:18.510Z,58.35
2019-05-28T19:11:48.012Z,58.58
2019-05-28T19:14:17.003Z,59.11
2019-05-28T19:16:45.872Z,59.59
2019-05-28T19:19:15.710Z,59.61
2019-05-28T19:21:45.947Z,59.92
2019-05-28T19:24:15.372Z,59.89
2019-05-28T19:26:45.130Z,59.72
2019-05-28T19:29:13.978Z,59.95
2019-05-28T19:31:42.767Z,59.68
2019-05-28T19:34:12.840Z,60.13
2019-05-28T19:36:43.064Z,59.94
2019-05-28T19:39:11.916Z,59.99
2019-05-28T19:41:53.615Z,59.80
2019-05-28T19:44:11.992Z,60.23
2019-05-28T19:46:41.910Z,59.79
2019-05-28T19:49:11.813Z,60.24
2019-05-28T19:51:41.774Z,60.39
2019-05-28T19:54:12.739Z,60.50
2019-05-28T19:56:41.579Z,60.21
2019-05-28T19:59:11.597Z,60.55
2019-05-28T20:01:42.206Z,60.71
2019-05-28T20:04:11.654Z,60.71
2019-05-28T20:06:40.647Z,60.88
2019-05-28T20:09:10.373Z,60.97
2019-05-28T20:11:39.351Z,61.11
2019-05-28T20:14:09.680Z,60.91
2019-05-28T20:16:38.480Z,61.48
2019-05-28T20:19:07.308Z,61.83
2019-05-28T20:21:37.635Z,62.22
2019-05-28T20:24:06.530Z,62.12
2019-05-28T20:26:36.373Z,62.27
2019-05-28T20:29:08.357Z,62.38
2019-05-28T20:31:34.019Z,62.84
2019-05-28T20:34:03.937Z,62.73
2019-05-28T20:36:31.854Z,62.94
2019-05-28T20:39:01.564Z,63.29
2019-05-28T20:41:29.814Z,63.37
2019-05-28T20:43:58.715Z,63.30
2019-05-28T20:46:27.608Z,63.51
2019-05-28T20:48:56.411Z,63.92
2019-05-28T20:51:26.317Z,63.78
2019-05-28T20:53:55.488Z,63.86
2019-05-28T20:56:24.295Z,64.84
2019-05-28T20:58:55.883Z,64.56
2019-05-28T21:01:24.288Z,64.94
2019-05-28T21:03:53.871Z,65.16
2019-05-28T21:06:24.056Z,65.32
2019-05-28T21:08:54.115Z,65.40
2019-05-28T21:11:21.665Z,65.56
2019-05-28T21:13:50.536Z,65.18
2019-05-28T21:16:19.512Z,65.86
2019-05-28T21:18:49.043Z,65.96
2019-05-28T21:21:18.943Z,65.70
2019-05-28T21:23:47.824Z,66.36
2019-05-28T21:26:17.110Z,66.41
2019-05-28T21:28:46.541Z,66.62
2019-05-28T21:31:15.400Z,66.73
2019-05-28T21:33:44.232Z,66.29
2019-05-28T21:36:13.095Z,66.30
2019-05-28T21:38:43.006Z,67.05
2019-05-28T21:41:11.899Z,67.02
2019-05-28T21:43:40.771Z,67.30
2019-05-28T21:46:12.545Z,67.71
2019-05-28T21:48:41.368Z,67.72
2019-05-28T21:51:10.310Z,68.49
2019-05-28T21:53:39.226Z,68.50
2019-05-28T21:56:08.300Z,68.39
2019-05-28T21:58:37.120Z,68.89
2019-05-28T22:01:08.355Z,68.53
2019-05-28T22:03:37.288Z,69.41
2019-05-28T22:06:07.676Z,69.35
2019-05-28T22:08:36.561Z,69.72
2019-05-28T22:11:05.479Z,69.56
2019-05-28T22:13:42.037Z,69.95
2019-05-28T22:16:13.175Z,69.99
2019-05-28T22:18:42.507Z,70.20
2019-05-28T22:21:11.519Z,70.63
2019-05-28T22:23:40.418Z,70.66
2019-05-28T22:26:09.547Z,70.65
2019-05-28T22:28:38.400Z,71.16
2019-05-28T22:31:08.132Z,71.04
2019-05-28T22:33:36.866Z,71.59
2019-05-28T22:36:06.029Z,71.83
2019-05-28T22:38:34.855Z,71.64
2019-05-28T22:41:06.066Z,72.36
2019-05-28T22:43:34.898Z,72.17
2019-05-28T22:46:05.189Z,72.45
2019-05-28T22:48:32.840Z,72.90
2019-05-28T22:51:01.662Z,72.50
2019-05-28T22:53:31.088Z,72.42
2019-05-28T22:56:03.532Z,72.65
2019-05-28T22:58:29.670Z,73.64
2019-05-28T23:00:58.744Z,73.83
2019-05-28T23:03:27.631Z,73.70
2019-05-28T23:05:56.447Z,73.38
2019-05-28T23:08:26.769Z,73.62
2019-05-28T23:10:56.957Z,74.20
2019-05-28T23:13:24.431Z,73.85
2019-05-28T23:15:53.284Z,74.61
2019-05-28T23:18:22.180Z,74.55
2019-05-28T23:20:50.992Z,74.87
2019-05-28T23:23:20.347Z,74.82
2019-05-28T23:25:49.910Z,74.99
2019-05-28T23:28:18.757Z,75.69
2019-05-28T23:30:47.585Z,75.95
2019-05-28T23:33:16.452Z,75.35
2019-05-28T23:35:45.322Z,75.22
2019-05-28T23:38:14.212Z,76.11
2019-05-28T23:40:43.819Z,75.82
2019-05-28T23:43:13.822Z,76.12
2019-05-28T23:45:42.653Z,75.90
2019-05-28T23:48:14.957Z,75.81
2019-05-28T23:50:41.733Z,76.46
2019-05-28T23:53:11.682Z,76.95
2019-05-28T23:55:39.369Z,76.27
2019-05-28T23:58:08.245Z,76.77
